sensor_id;sensor_type;location;lat;lon;timestamp;P1;durP1;ratioP1;P2;durP2;ratioP2
16468;SDS011;8345;50.902;6.956;2023-12-04T00:01:45;13.73;;;10.87;;
16468;SDS011;8345;50.902;6.956;2023-12-04T00:04:15;15.27;;;10.93;;
16468;SDS011;8345;50.902;6.956;2023-12-04T00:06:42;13.70;;;10.63;;
16468;SDS011;8345;50.902;6.956;2023-12-04T00:09:09;12.10;;;10.10;;
16468;SDS011;8345;50.902;6.956;2023-12-04T00:11:36;12.43;;;10.30;;
16468;SDS011;8345;50.902;6.956;2023-12-04T00:14:03;16.70;;;11.03;;
16468;SDS011;8345;50.902;6.956;2023-12-04T00:16:33;13.80;;;11.23;;
16468;SDS011;8345;50.902;6.956;2023-12-04T00:19:00;12.67;;;10.33;;
16468;SDS011;8345;50.902;6.956;2023-12-04T00:21:29;15.93;;;10.43;;
16468;SDS011;8345;50.902;6.956;2023-12-04T00:23:56;11.67;;;10.33;;
16468;SDS011;8345;50.902;6.956;2023-12-04T00:26:23;12.13;;;10.27;;
16468;SDS011;8345;50.902;6.956;2023-12-04T00:28:50;13.67;;;10.20;;
16468;SDS011;8345;50.902;6.956;2023-12-04T00:31:17;13.20;;;10.60;;
16468;SDS011;8345;50.902;6.956;2023-12-04T00:33:45;12.67;;;10.00;;
16468;SDS011;8345;50.902;6.956;2023-12-04T00:36:13;12.03;;;10.00;;
16468;SDS011;8345;50.902;6.956;2023-12-04T00:38:41;12.67;;;9.73;;
16468;SDS011;8345;50.902;6.956;2023-12-04T00:41:08;12.47;;;10.10;;
16468;SDS011;8345;50.902;6.956;2023-12-04T00:43:36;13.37;;;10.20;;
16468;SDS011;8345;50.902;6.956;2023-12-04T00:46:04;12.13;;;10.27;;
16468;SDS011;8345;50.902;6.956;2023-12-04T00:48:31;12.33;;;10.00;;
16468;SDS011;8345;50.902;6.956;2023-12-04T00:50:58;12.37;;;9.33;;
16468;SDS011;8345;50.902;6.956;2023-12-04T00:53:25;12.73;;;10.23;;
16468;SDS011;8345;50.902;6.956;2023-12-04T00:55:53;12.70;;;9.53;;
16468;SDS011;8345;50.902;6.956;2023-12-04T00:58:21;13.53;;;10.10;;
16468;SDS011;8345;50.902;6.956;2023-12-04T01:00:48;12.10;;;9.23;;
16468;SDS011;8345;50.902;6.956;2023-12-04T01:03:17;12.47;;;9.37;;
16468;SDS011;8345;50.902;6.956;2023-12-04T01:05:44;11.80;;;9.60;;
16468;SDS011;8345;50.902;6.956;2023-12-04T01:08:11;11.40;;;9.17;;
16468;SDS011;8345;50.902;6.956;2023-12-04T01:10:38;13.37;;;9.73;;
16468;SDS011;8345;50.902;6.956;2023-12-04T01:13:07;12.83;;;10.13;;
16468;SDS011;8345;50.902;6.956;2023-12-04T01:15:34;11.60;;;9.37;;
16468;SDS011;8345;50.902;6.956;2023-12-04T01:18:01;10.97;;;9.60;;
16468;SDS011;8345;50.902;6.956;2023-12-04T01:20:28;12.23;;;9.47;;
16468;SDS011;8345;50.902;6.956;2023-12-04T01:22:58;11.03;;;9.27;;
16468;SDS011;8345;50.902;6.956;2023-12-04T01:25:25;12.77;;;9.47;;
16468;SDS011;8345;50.902;6.956;2023-12-04T01:27:52;10.97;;;9.27;;
16468;SDS011;8345;50.902;6.956;2023-12-04T01:30:21;11.87;;;9.40;;
16468;SDS011;8345;50.902;6.956;2023-12-04T01:32:48;11.30;;;9.07;;
16468;SDS011;8345;50.902;6.956;2023-12-04T01:35:15;12.10;;;9.53;;
16468;SDS011;8345;50.902;6.956;2023-12-04T01:37:43;11.23;;;9.20;;
16468;SDS011;8345;50.902;6.956;2023-12-04T01:40:11;12.10;;;9.33;;
16468;SDS011;8345;50.902;6.956;2023-12-04T01:42:38;12.27;;;8.60;;
16468;SDS011;8345;50.902;6.956;2023-12-04T01:45:05;12.03;;;9.30;;
16468;SDS011;8345;50.902;6.956;2023-12-04T01:47:35;11.77;;;10.00;;
16468;SDS011;8345;50.902;6.956;2023-12-04T01:50:02;11.60;;;8.90;;
16468;SDS011;8345;50.902;6.956;2023-12-04T01:52:30;10.03;;;8.60;;
16468;SDS011;8345;50.902;6.956;2023-12-04T01:54:57;12.87;;;9.73;;
16468;SDS011;8345;50.902;6.956;2023-12-04T01:57:24;10.67;;;8.63;;
16468;SDS011;8345;50.902;6.956;2023-12-04T01:59:51;13.57;;;9.67;;
16468;SDS011;8345;50.902;6.956;2023-12-04T02:02:18;10.80;;;8.47;;
16468;SDS011;8345;50.902;6.956;2023-12-04T02:04:47;11.53;;;9.33;;
16468;SDS011;8345;50.902;6.956;2023-12-04T02:07:14;10.13;;;8.43;;
16468;SDS011;8345;50.902;6.956;2023-12-04T02:09:42;9.57;;;8.33;;
16468;SDS011;8345;50.902;6.956;2023-12-04T02:12:09;11.83;;;8.73;;
16468;SDS011;8345;50.902;6.956;2023-12-04T02:14:37;12.60;;;9.27;;
16468;SDS011;8345;50.902;6.956;2023-12-04T02:17:04;12.27;;;9.03;;
16468;SDS011;8345;50.902;6.956;2023-12-04T02:19:32;12.40;;;9.97;;
16468;SDS011;8345;50.902;6.956;2023-12-04T02:22:01;11.03;;;8.80;;
16468;SDS011;8345;50.902;6.956;2023-12-04T02:24:29;10.97;;;8.43;;
16468;SDS011;8345;50.902;6.956;2023-12-04T02:27:01;10.33;;;8.70;;
16468;SDS011;8345;50.902;6.956;2023-12-04T02:29:30;11.23;;;9.20;;
16468;SDS011;8345;50.902;6.956;2023-12-04T02:31:58;10.50;;;8.20;;
16468;SDS011;8345;50.902;6.956;2023-12-04T02:34:27;11.37;;;9.37;;
16468;SDS011;8345;50.902;6.956;2023-12-04T02:36:56;10.23;;;8.60;;
16468;SDS011;8345;50.902;6.956;2023-12-04T02:39:23;12.20;;;8.40;;
16468;SDS011;8345;50.902;6.956;2023-12-04T02:41:52;10.70;;;9.23;;
16468;SDS011;8345;50.902;6.956;2023-12-04T02:44:19;11.33;;;8.93;;
16468;SDS011;8345;50.902;6.956;2023-12-04T02:46:46;10.63;;;8.63;;
16468;SDS011;8345;50.902;6.956;2023-12-04T02:49:13;9.90;;;7.87;;
16468;SDS011;8345;50.902;6.956;2023-12-04T02:51:40;10.47;;;9.27;;
16468;SDS011;8345;50.902;6.956;2023-12-04T02:54:08;11.70;;;9.10;;
16468;SDS011;8345;50.902;6.956;2023-12-04T02:56:35;10.93;;;8.50;;
16468;SDS011;8345;50.902;6.956;2023-12-04T02:59:03;10.47;;;8.27;;
16468;SDS011;8345;50.902;6.956;2023-12-04T03:01:30;11.10;;;8.70;;
16468;SDS011;8345;50.902;6.956;2023-12-04T03:03:58;11.63;;;9.30;;
16468;SDS011;8345;50.902;6.956;2023-12-04T03:06:25;11.83;;;8.70;;
16468;SDS011;8345;50.902;6.956;2023-12-04T03:08:52;10.43;;;8.50;;
16468;SDS011;8345;50.902;6.956;2023-12-04T03:11:19;11.07;;;8.43;;
16468;SDS011;8345;50.902;6.956;2023-12-04T03:13:47;10.17;;;8.43;;
16468;SDS011;8345;50.902;6.956;2023-12-04T03:16:17;11.07;;;8.73;;
16468;SDS011;8345;50.902;6.956;2023-12-04T03:18:44;10.53;;;8.33;;
16468;SDS011;8345;50.902;6.956;2023-12-04T03:21:12;11.10;;;8.50;;
16468;SDS011;8345;50.902;6.956;2023-12-04T03:23:39;9.93;;;8.03;;
16468;SDS011;8345;50.902;6.956;2023-12-04T03:26:06;10.27;;;8.37;;
16468;SDS011;8345;50.902;6.956;2023-12-04T03:28:33;10.33;;;8.90;;
16468;SDS011;8345;50.902;6.956;2023-12-04T03:31:01;10.20;;;8.17;;
16468;SDS011;8345;50.902;6.956;2023-12-04T03:33:30;11.77;;;8.93;;
16468;SDS011;8345;50.902;6.956;2023-12-04T03:35:58;10.40;;;8.50;;
16468;SDS011;8345;50.902;6.956;2023-12-04T03:38:25;10.70;;;8.20;;
16468;SDS011;8345;50.902;6.956;2023-12-04T03:40:52;10.87;;;8.40;;
16468;SDS011;8345;50.902;6.956;2023-12-04T03:43:20;10.30;;;8.63;;
16468;SDS011;8345;50.902;6.956;2023-12-04T03:45:47;10.00;;;8.30;;
16468;SDS011;8345;50.902;6.956;2023-12-04T03:48:14;9.57;;;7.93;;
16468;SDS011;8345;50.902;6.956;2023-12-04T03:50:42;11.57;;;8.90;;
16468;SDS011;8345;50.902;6.956;2023-12-04T03:53:10;10.20;;;8.40;;
16468;SDS011;8345;50.902;6.956;2023-12-04T03:55:37;10.80;;;8.37;;
16468;SDS011;8345;50.902;6.956;2023-12-04T03:58:04;10.33;;;8.60;;
16468;SDS011;8345;50.902;6.956;2023-12-04T04:00:31;9.67;;;8.10;;
16468;SDS011;8345;50.902;6.956;2023-12-04T04:02:58;11.50;;;8.43;;
16468;SDS011;8345;50.902;6.956;2023-12-04T04:05:25;10.80;;;8.53;;
16468;SDS011;8345;50.902;6.956;2023-12-04T04:07:54;11.77;;;8.80;;
16468;SDS011;8345;50.902;6.956;2023-12-04T04:10:21;10.40;;;8.27;;
16468;SDS011;8345;50.902;6.956;2023-12-04T04:12:49;10.33;;;8.63;;
16468;SDS011;8345;50.902;6.956;2023-12-04T04:15:16;11.97;;;9.00;;
16468;SDS011;8345;50.902;6.956;2023-12-04T04:17:43;12.20;;;8.80;;
16468;SDS011;8345;50.902;6.956;2023-12-04T04:20:11;11.43;;;8.70;;
16468;SDS011;8345;50.902;6.956;2023-12-04T04:22:39;11.87;;;9.30;;
16468;SDS011;8345;50.902;6.956;2023-12-04T04:25:08;10.03;;;8.47;;
16468;SDS011;8345;50.902;6.956;2023-12-04T04:27:35;12.00;;;8.80;;
16468;SDS011;8345;50.902;6.956;2023-12-04T04:30:03;12.20;;;10.03;;
16468;SDS011;8345;50.902;6.956;2023-12-04T04:32:30;11.57;;;9.63;;
16468;SDS011;8345;50.902;6.956;2023-12-04T04:34:57;10.87;;;9.23;;
16468;SDS011;8345;50.902;6.956;2023-12-04T04:37:24;12.43;;;9.33;;
16468;SDS011;8345;50.902;6.956;2023-12-04T04:39:52;11.23;;;9.30;;
16468;SDS011;8345;50.902;6.956;2023-12-04T04:42:21;11.90;;;9.60;;
16468;SDS011;8345;50.902;6.956;2023-12-04T04:44:48;13.80;;;9.67;;
16468;SDS011;8345;50.902;6.956;2023-12-04T04:47:15;12.13;;;10.10;;
16468;SDS011;8345;50.902;6.956;2023-12-04T04:49:42;13.77;;;10.17;;
16468;SDS011;8345;50.902;6.956;2023-12-04T04:52:09;12.83;;;11.30;;
16468;SDS011;8345;50.902;6.956;2023-12-04T04:54:36;12.10;;;10.77;;
16468;SDS011;8345;50.902;6.956;2023-12-04T04:57:04;12.60;;;10.00;;
16468;SDS011;8345;50.902;6.956;2023-12-04T04:59:32;13.80;;;10.80;;
16468;SDS011;8345;50.902;6.956;2023-12-04T05:01:59;12.70;;;10.60;;
16468;SDS011;8345;50.902;6.956;2023-12-04T05:04:26;12.23;;;10.30;;
16468;SDS011;8345;50.902;6.956;2023-12-04T05:06:53;11.50;;;10.27;;
16468;SDS011;8345;50.902;6.956;2023-12-04T05:09:20;12.80;;;10.10;;
16468;SDS011;8345;50.902;6.956;2023-12-04T05:11:47;11.50;;;10.03;;
16468;SDS011;8345;50.902;6.956;2023-12-04T05:14:14;12.13;;;10.23;;
16468;SDS011;8345;50.902;6.956;2023-12-04T05:16:43;12.97;;;10.37;;
16468;SDS011;8345;50.902;6.956;2023-12-04T05:19:10;12.20;;;10.47;;
16468;SDS011;8345;50.902;6.956;2023-12-04T05:21:37;12.00;;;10.57;;
16468;SDS011;8345;50.902;6.956;2023-12-04T05:24:05;12.30;;;10.60;;
16468;SDS011;8345;50.902;6.956;2023-12-04T05:26:32;12.57;;;10.00;;
16468;SDS011;8345;50.902;6.956;2023-12-04T05:28:59;14.67;;;10.90;;
16468;SDS011;8345;50.902;6.956;2023-12-04T05:31:27;13.87;;;11.00;;
16468;SDS011;8345;50.902;6.956;2023-12-04T05:33:55;12.40;;;10.73;;
16468;SDS011;8345;50.902;6.956;2023-12-04T05:36:23;12.77;;;10.47;;
16468;SDS011;8345;50.902;6.956;2023-12-04T05:38:50;12.97;;;10.67;;
16468;SDS011;8345;50.902;6.956;2023-12-04T05:41:18;13.10;;;10.30;;
16468;SDS011;8345;50.902;6.956;2023-12-04T05:43:46;13.07;;;10.43;;
16468;SDS011;8345;50.902;6.956;2023-12-04T05:46:13;12.90;;;10.27;;
16468;SDS011;8345;50.902;6.956;2023-12-04T05:48:40;12.47;;;10.03;;
16468;SDS011;8345;50.902;6.956;2023-12-04T05:51:09;11.67;;;9.77;;
16468;SDS011;8345;50.902;6.956;2023-12-04T05:53:37;13.97;;;11.03;;
16468;SDS011;8345;50.902;6.956;2023-12-04T05:56:05;13.67;;;11.53;;
16468;SDS011;8345;50.902;6.956;2023-12-04T05:58:34;14.63;;;11.00;;
16468;SDS011;8345;50.902;6.956;2023-12-04T06:01:02;14.33;;;10.87;;
16468;SDS011;8345;50.902;6.956;2023-12-04T06:03:30;14.13;;;11.77;;
16468;SDS011;8345;50.902;6.956;2023-12-04T06:05:57;11.83;;;10.17;;
16468;SDS011;8345;50.902;6.956;2023-12-04T06:08:26;12.87;;;10.77;;
16468;SDS011;8345;50.902;6.956;2023-12-04T06:10:53;13.60;;;11.13;;
16468;SDS011;8345;50.902;6.956;2023-12-04T06:13:20;14.53;;;11.10;;
16468;SDS011;8345;50.902;6.956;2023-12-04T06:15:47;13.93;;;10.90;;
16468;SDS011;8345;50.902;6.956;2023-12-04T06:18:15;14.57;;;11.40;;
16468;SDS011;8345;50.902;6.956;2023-12-04T06:20:42;12.23;;;10.93;;
16468;SDS011;8345;50.902;6.956;2023-12-04T06:23:09;12.80;;;11.17;;
16468;SDS011;8345;50.902;6.956;2023-12-04T06:25:38;14.07;;;10.97;;
16468;SDS011;8345;50.902;6.956;2023-12-04T06:28:06;14.77;;;11.77;;
16468;SDS011;8345;50.902;6.956;2023-12-04T06:30:34;16.73;;;11.83;;
16468;SDS011;8345;50.902;6.956;2023-12-04T06:33:01;13.97;;;11.40;;
16468;SDS011;8345;50.902;6.956;2023-12-04T06:35:29;14.17;;;11.77;;
16468;SDS011;8345;50.902;6.956;2023-12-04T06:37:56;15.83;;;12.70;;
16468;SDS011;8345;50.902;6.956;2023-12-04T06:40:27;13.70;;;11.87;;
16468;SDS011;8345;50.902;6.956;2023-12-04T06:42:56;14.70;;;12.20;;
16468;SDS011;8345;50.902;6.956;2023-12-04T06:45:23;14.43;;;11.50;;
16468;SDS011;8345;50.902;6.956;2023-12-04T06:47:51;15.87;;;11.93;;
16468;SDS011;8345;50.902;6.956;2023-12-04T06:50:19;15.10;;;12.03;;
16468;SDS011;8345;50.902;6.956;2023-12-04T06:52:46;16.53;;;12.63;;
16468;SDS011;8345;50.902;6.956;2023-12-04T06:55:13;14.33;;;12.20;;
16468;SDS011;8345;50.902;6.956;2023-12-04T06:57:40;15.80;;;12.67;;
16468;SDS011;8345;50.902;6.956;2023-12-04T07:00:10;14.93;;;12.40;;
16468;SDS011;8345;50.902;6.956;2023-12-04T07:02:39;15.40;;;12.37;;
16468;SDS011;8345;50.902;6.956;2023-12-04T07:05:06;14.63;;;12.20;;
16468;SDS011;8345;50.902;6.956;2023-12-04T07:07:34;15.20;;;11.60;;
16468;SDS011;8345;50.902;6.956;2023-12-04T07:10:01;16.80;;;12.37;;
16468;SDS011;8345;50.902;6.956;2023-12-04T07:12:28;14.27;;;11.43;;
16468;SDS011;8345;50.902;6.956;2023-12-04T07:14:55;14.20;;;11.33;;
16468;SDS011;8345;50.902;6.956;2023-12-04T07:17:24;14.33;;;11.70;;
16468;SDS011;8345;50.902;6.956;2023-12-04T07:19:51;14.40;;;11.40;;
16468;SDS011;8345;50.902;6.956;2023-12-04T07:22:18;16.33;;;12.67;;
16468;SDS011;8345;50.902;6.956;2023-12-04T07:24:45;15.57;;;12.33;;
16468;SDS011;8345;50.902;6.956;2023-12-04T07:27:13;15.33;;;11.77;;
16468;SDS011;8345;50.902;6.956;2023-12-04T07:29:41;16.30;;;11.90;;
16468;SDS011;8345;50.902;6.956;2023-12-04T07:32:10;14.73;;;11.33;;
16468;SDS011;8345;50.902;6.956;2023-12-04T07:34:39;12.80;;;11.07;;
16468;SDS011;8345;50.902;6.956;2023-12-04T07:37:06;12.67;;;10.63;;
16468;SDS011;8345;50.902;6.956;2023-12-04T07:39:33;15.70;;;11.17;;
16468;SDS011;8345;50.902;6.956;2023-12-04T07:42:00;14.53;;;11.20;;
16468;SDS011;8345;50.902;6.956;2023-12-04T07:44:28;15.03;;;12.27;;
16468;SDS011;8345;50.902;6.956;2023-12-04T07:46:55;14.07;;;11.40;;
16468;SDS011;8345;50.902;6.956;2023-12-04T07:49:23;14.23;;;11.63;;
16468;SDS011;8345;50.902;6.956;2023-12-04T07:51:52;15.73;;;10.93;;
16468;SDS011;8345;50.902;6.956;2023-12-04T07:54:19;14.20;;;11.43;;
16468;SDS011;8345;50.902;6.956;2023-12-04T07:56:47;13.87;;;11.13;;
16468;SDS011;8345;50.902;6.956;2023-12-04T07:59:14;16.03;;;12.03;;
16468;SDS011;8345;50.902;6.956;2023-12-04T08:01:41;13.27;;;11.20;;
16468;SDS011;8345;50.902;6.956;2023-12-04T08:04:09;18.03;;;11.77;;
16468;SDS011;8345;50.902;6.956;2023-12-04T08:06:37;15.20;;;11.20;;
16468;SDS011;8345;50.902;6.956;2023-12-04T08:09:06;17.13;;;11.97;;
16468;SDS011;8345;50.902;6.956;2023-12-04T08:11:35;16.17;;;12.03;;
16468;SDS011;8345;50.902;6.956;2023-12-04T08:14:03;16.43;;;11.87;;
16468;SDS011;8345;50.902;6.956;2023-12-04T08:16:30;13.50;;;11.40;;
16468;SDS011;8345;50.902;6.956;2023-12-04T08:18:57;15.17;;;10.90;;
16468;SDS011;8345;50.902;6.956;2023-12-04T08:21:24;14.53;;;11.90;;
16468;SDS011;8345;50.902;6.956;2023-12-04T08:23:51;14.40;;;11.27;;
16468;SDS011;8345;50.902;6.956;2023-12-04T08:26:22;15.13;;;11.77;;
16468;SDS011;8345;50.902;6.956;2023-12-04T08:28:50;14.70;;;11.53;;
16468;SDS011;8345;50.902;6.956;2023-12-04T08:31:17;14.20;;;10.83;;
16468;SDS011;8345;50.902;6.956;2023-12-04T08:33:44;15.33;;;11.00;;
16468;SDS011;8345;50.902;6.956;2023-12-04T08:36:12;12.70;;;10.57;;
16468;SDS011;8345;50.902;6.956;2023-12-04T08:38:39;12.50;;;10.50;;
16468;SDS011;8345;50.902;6.956;2023-12-04T08:41:06;13.03;;;10.80;;
16468;SDS011;8345;50.902;6.956;2023-12-04T08:43:35;11.97;;;10.27;;
16468;SDS011;8345;50.902;6.956;2023-12-04T08:46:02;14.07;;;11.07;;
16468;SDS011;8345;50.902;6.956;2023-12-04T08:48:29;12.10;;;10.37;;
16468;SDS011;8345;50.902;6.956;2023-12-04T08:50:57;15.10;;;11.77;;
16468;SDS011;8345;50.902;6.956;2023-12-04T08:53:25;11.80;;;9.83;;
16468;SDS011;8345;50.902;6.956;2023-12-04T08:55:52;13.50;;;10.70;;
16468;SDS011;8345;50.902;6.956;2023-12-04T08:58:19;12.63;;;10.10;;
16468;SDS011;8345;50.902;6.956;2023-12-04T09:00:48;13.20;;;10.93;;
16468;SDS011;8345;50.902;6.956;2023-12-04T09:03:15;14.17;;;10.67;;
16468;SDS011;8345;50.902;6.956;2023-12-04T09:05:44;13.83;;;11.17;;
16468;SDS011;8345;50.902;6.956;2023-12-04T09:08:11;13.03;;;10.33;;
16468;SDS011;8345;50.902;6.956;2023-12-04T09:10:38;13.97;;;11.33;;
16468;SDS011;8345;50.902;6.956;2023-12-04T09:13:05;12.23;;;10.17;;
16468;SDS011;8345;50.902;6.956;2023-12-04T09:15:33;12.77;;;10.43;;
16468;SDS011;8345;50.902;6.956;2023-12-04T09:18:01;12.97;;;10.27;;
16468;SDS011;8345;50.902;6.956;2023-12-04T09:20:28;12.47;;;9.90;;
16468;SDS011;8345;50.902;6.956;2023-12-04T09:22:56;12.60;;;10.30;;
16468;SDS011;8345;50.902;6.956;2023-12-04T09:25:23;16.13;;;10.40;;
16468;SDS011;8345;50.902;6.956;2023-12-04T09:27:50;13.37;;;10.60;;
16468;SDS011;8345;50.902;6.956;2023-12-04T09:30:17;14.90;;;10.20;;
16468;SDS011;8345;50.902;6.956;2023-12-04T09:32:44;12.77;;;10.13;;
16468;SDS011;8345;50.902;6.956;2023-12-04T09:35:13;14.07;;;10.10;;
16468;SDS011;8345;50.902;6.956;2023-12-04T09:37:41;12.87;;;10.27;;
16468;SDS011;8345;50.902;6.956;2023-12-04T09:40:08;12.93;;;10.03;;
16468;SDS011;8345;50.902;6.956;2023-12-04T09:42:36;11.40;;;9.07;;
16468;SDS011;8345;50.902;6.956;2023-12-04T09:45:04;11.93;;;8.80;;
16468;SDS011;8345;50.902;6.956;2023-12-04T09:47:32;11.50;;;9.57;;
16468;SDS011;8345;50.902;6.956;2023-12-04T09:50:01;11.83;;;10.13;;
16468;SDS011;8345;50.902;6.956;2023-12-04T09:52:30;12.33;;;9.83;;
16468;SDS011;8345;50.902;6.956;2023-12-04T09:54:58;11.23;;;9.57;;
16468;SDS011;8345;50.902;6.956;2023-12-04T09:57:26;12.17;;;9.83;;
16468;SDS011;8345;50.902;6.956;2023-12-04T09:59:53;13.60;;;9.50;;
16468;SDS011;8345;50.902;6.956;2023-12-04T10:02:20;11.23;;;9.63;;
16468;SDS011;8345;50.902;6.956;2023-12-04T10:04:48;11.30;;;9.43;;
16468;SDS011;8345;50.902;6.956;2023-12-04T10:07:15;12.47;;;9.63;;
16468;SDS011;8345;50.902;6.956;2023-12-04T10:09:43;12.17;;;9.67;;
16468;SDS011;8345;50.902;6.956;2023-12-04T10:12:11;10.73;;;9.10;;
16468;SDS011;8345;50.902;6.956;2023-12-04T10:14:38;12.47;;;9.53;;
16468;SDS011;8345;50.902;6.956;2023-12-04T10:17:14;14.30;;;9.70;;
16468;SDS011;8345;50.902;6.956;2023-12-04T10:19:43;10.63;;;9.33;;
16468;SDS011;8345;50.902;6.956;2023-12-04T10:22:10;11.57;;;9.23;;
16468;SDS011;8345;50.902;6.956;2023-12-04T10:24:39;12.20;;;9.90;;
16468;SDS011;8345;50.902;6.956;2023-12-04T10:27:07;12.13;;;9.63;;
16468;SDS011;8345;50.902;6.956;2023-12-04T10:29:41;12.47;;;9.27;;
16468;SDS011;8345;50.902;6.956;2023-12-04T10:32:08;13.20;;;9.20;;
16468;SDS011;8345;50.902;6.956;2023-12-04T10:34:35;12.10;;;9.60;;
16468;SDS011;8345;50.902;6.956;2023-12-04T10:37:03;11.37;;;9.57;;
16468;SDS011;8345;50.902;6.956;2023-12-04T10:39:31;12.87;;;9.50;;
16468;SDS011;8345;50.902;6.956;2023-12-04T10:42:00;10.50;;;9.10;;
16468;SDS011;8345;50.902;6.956;2023-12-04T10:44:30;11.37;;;8.83;;
16468;SDS011;8345;50.902;6.956;2023-12-04T10:46:58;11.53;;;8.53;;
16468;SDS011;8345;50.902;6.956;2023-12-04T10:49:26;10.23;;;8.63;;
16468;SDS011;8345;50.902;6.956;2023-12-04T10:51:55;10.37;;;9.27;;
16468;SDS011;8345;50.902;6.956;2023-12-04T10:54:24;13.23;;;9.07;;
16468;SDS011;8345;50.902;6.956;2023-12-04T10:56:52;10.93;;;9.50;;
16468;SDS011;8345;50.902;6.956;2023-12-04T10:59:21;11.40;;;9.03;;
16468;SDS011;8345;50.902;6.956;2023-12-04T11:01:52;11.07;;;8.70;;
16468;SDS011;8345;50.902;6.956;2023-12-04T11:04:21;10.87;;;9.00;;
16468;SDS011;8345;50.902;6.956;2023-12-04T11:06:52;9.70;;;8.63;;
16468;SDS011;8345;50.902;6.956;2023-12-04T11:09:20;10.07;;;8.80;;
16468;SDS011;8345;50.902;6.956;2023-12-04T11:11:51;12.30;;;8.97;;
16468;SDS011;8345;50.902;6.956;2023-12-04T11:14:21;12.53;;;9.40;;
16468;SDS011;8345;50.902;6.956;2023-12-04T11:16:49;10.03;;;8.27;;
16468;SDS011;8345;50.902;6.956;2023-12-04T11:19:23;11.03;;;8.50;;
16468;SDS011;8345;50.902;6.956;2023-12-04T11:21:54;9.53;;;8.53;;
16468;SDS011;8345;50.902;6.956;2023-12-04T11:24:24;11.00;;;8.43;;
16468;SDS011;8345;50.902;6.956;2023-12-04T11:26:51;12.73;;;9.20;;
16468;SDS011;8345;50.902;6.956;2023-12-04T11:29:19;11.63;;;9.33;;
16468;SDS011;8345;50.902;6.956;2023-12-04T11:31:47;11.13;;;8.87;;
16468;SDS011;8345;50.902;6.956;2023-12-04T11:34:14;10.27;;;8.57;;
16468;SDS011;8345;50.902;6.956;2023-12-04T11:36:42;11.27;;;8.87;;
16468;SDS011;8345;50.902;6.956;2023-12-04T11:39:11;12.10;;;9.20;;
16468;SDS011;8345;50.902;6.956;2023-12-04T11:41:40;11.03;;;8.90;;
16468;SDS011;8345;50.902;6.956;2023-12-04T11:44:13;11.53;;;8.53;;
16468;SDS011;8345;50.902;6.956;2023-12-04T11:46:54;12.20;;;9.60;;
16468;SDS011;8345;50.902;6.956;2023-12-04T11:49:28;11.53;;;9.10;;
16468;SDS011;8345;50.902;6.956;2023-12-04T11:52:04;9.27;;;8.27;;
16468;SDS011;8345;50.902;6.956;2023-12-04T11:54:56;11.67;;;8.80;;
16468;SDS011;8345;50.902;6.956;2023-12-04T11:57:25;11.47;;;8.70;;
16468;SDS011;8345;50.902;6.956;2023-12-04T12:00:04;11.93;;;9.60;;
16468;SDS011;8345;50.902;6.956;2023-12-04T12:02:34;11.50;;;9.33;;
16468;SDS011;8345;50.902;6.956;2023-12-04T12:05:02;12.70;;;10.10;;
16468;SDS011;8345;50.902;6.956;2023-12-04T12:07:31;13.77;;;10.00;;
16468;SDS011;8345;50.902;6.956;2023-12-04T12:09:58;11.53;;;9.60;;
16468;SDS011;8345;50.902;6.956;2023-12-04T12:12:26;11.50;;;9.90;;
16468;SDS011;8345;50.902;6.956;2023-12-04T12:14:53;13.70;;;9.67;;
16468;SDS011;8345;50.902;6.956;2023-12-04T12:17:20;13.03;;;10.17;;
16468;SDS011;8345;50.902;6.956;2023-12-04T12:19:48;13.70;;;9.97;;
16468;SDS011;8345;50.902;6.956;2023-12-04T12:22:15;13.33;;;9.77;;
16468;SDS011;8345;50.902;6.956;2023-12-04T12:24:43;11.07;;;9.50;;
16468;SDS011;8345;50.902;6.956;2023-12-04T12:27:11;13.53;;;9.17;;
16468;SDS011;8345;50.902;6.956;2023-12-04T12:29:38;12.47;;;9.67;;
16468;SDS011;8345;50.902;6.956;2023-12-04T12:32:05;10.13;;;9.03;;
16468;SDS011;8345;50.902;6.956;2023-12-04T12:34:32;11.97;;;9.67;;
16468;SDS011;8345;50.902;6.956;2023-12-04T12:37:01;13.53;;;9.17;;
16468;SDS011;8345;50.902;6.956;2023-12-04T12:39:28;11.63;;;9.00;;
16468;SDS011;8345;50.902;6.956;2023-12-04T12:41:57;14.17;;;9.80;;
16468;SDS011;8345;50.902;6.956;2023-12-04T12:44:24;10.03;;;8.43;;
16468;SDS011;8345;50.902;6.956;2023-12-04T12:46:51;12.43;;;8.97;;
16468;SDS011;8345;50.902;6.956;2023-12-04T12:49:19;10.60;;;8.80;;
16468;SDS011;8345;50.902;6.956;2023-12-04T12:51:46;11.23;;;8.50;;
16468;SDS011;8345;50.902;6.956;2023-12-04T12:54:13;11.13;;;9.07;;
16468;SDS011;8345;50.902;6.956;2023-12-04T12:56:41;10.30;;;8.37;;
16468;SDS011;8345;50.902;6.956;2023-12-04T12:59:09;11.63;;;8.77;;
16468;SDS011;8345;50.902;6.956;2023-12-04T13:01:36;11.63;;;8.77;;
16468;SDS011;8345;50.902;6.956;2023-12-04T13:04:04;12.13;;;8.93;;
16468;SDS011;8345;50.902;6.956;2023-12-04T13:06:31;11.50;;;9.50;;
16468;SDS011;8345;50.902;6.956;2023-12-04T13:08:59;11.73;;;8.90;;
16468;SDS011;8345;50.902;6.956;2023-12-04T13:11:26;12.30;;;9.77;;
16468;SDS011;8345;50.902;6.956;2023-12-04T13:13:56;14.13;;;9.67;;
16468;SDS011;8345;50.902;6.956;2023-12-04T13:16:25;11.53;;;9.33;;
16468;SDS011;8345;50.902;6.956;2023-12-04T13:18:52;12.20;;;9.97;;
16468;SDS011;8345;50.902;6.956;2023-12-04T13:21:27;12.13;;;9.70;;
16468;SDS011;8345;50.902;6.956;2023-12-04T13:23:56;12.07;;;9.50;;
16468;SDS011;8345;50.902;6.956;2023-12-04T13:26:23;13.00;;;9.87;;
16468;SDS011;8345;50.902;6.956;2023-12-04T13:28:50;11.67;;;9.50;;
16468;SDS011;8345;50.902;6.956;2023-12-04T13:31:18;11.20;;;9.87;;
16468;SDS011;8345;50.902;6.956;2023-12-04T13:33:48;10.60;;;9.17;;
16468;SDS011;8345;50.902;6.956;2023-12-04T13:36:15;11.20;;;9.47;;
16468;SDS011;8345;50.902;6.956;2023-12-04T13:38:42;11.93;;;9.90;;
16468;SDS011;8345;50.902;6.956;2023-12-04T13:41:09;11.93;;;8.93;;
16468;SDS011;8345;50.902;6.956;2023-12-04T13:44:05;13.73;;;10.03;;
16468;SDS011;8345;50.902;6.956;2023-12-04T13:46:32;13.10;;;8.90;;
16468;SDS011;8345;50.902;6.956;2023-12-04T13:49:00;10.33;;;9.17;;
16468;SDS011;8345;50.902;6.956;2023-12-04T13:51:28;11.40;;;9.30;;
16468;SDS011;8345;50.902;6.956;2023-12-04T13:53:56;11.63;;;9.37;;
16468;SDS011;8345;50.902;6.956;2023-12-04T13:56:34;11.33;;;9.67;;
16468;SDS011;8345;50.902;6.956;2023-12-04T13:59:09;10.50;;;9.37;;
16468;SDS011;8345;50.902;6.956;2023-12-04T14:01:43;11.13;;;9.23;;
16468;SDS011;8345;50.902;6.956;2023-12-04T14:04:12;10.03;;;8.97;;
16468;SDS011;8345;50.902;6.956;2023-12-04T14:06:39;10.70;;;9.10;;
16468;SDS011;8345;50.902;6.956;2023-12-04T14:09:09;10.60;;;8.90;;
16468;SDS011;8345;50.902;6.956;2023-12-04T14:11:39;11.37;;;9.23;;
16468;SDS011;8345;50.902;6.956;2023-12-04T14:14:07;9.20;;;8.20;;
16468;SDS011;8345;50.902;6.956;2023-12-04T14:16:34;11.63;;;8.53;;
16468;SDS011;8345;50.902;6.956;2023-12-04T14:19:04;12.97;;;9.30;;
16468;SDS011;8345;50.902;6.956;2023-12-04T14:21:33;11.77;;;9.13;;
16468;SDS011;8345;50.902;6.956;2023-12-04T14:24:00;11.20;;;9.07;;
16468;SDS011;8345;50.902;6.956;2023-12-04T14:26:27;10.43;;;8.77;;
16468;SDS011;8345;50.902;6.956;2023-12-04T14:28:54;10.50;;;9.37;;
16468;SDS011;8345;50.902;6.956;2023-12-04T14:31:26;10.33;;;8.67;;
16468;SDS011;8345;50.902;6.956;2023-12-04T14:33:53;12.57;;;9.30;;
16468;SDS011;8345;50.902;6.956;2023-12-04T14:36:20;9.60;;;8.57;;
16468;SDS011;8345;50.902;6.956;2023-12-04T14:38:48;10.80;;;8.93;;
16468;SDS011;8345;50.902;6.956;2023-12-04T14:41:16;9.93;;;8.30;;
16468;SDS011;8345;50.902;6.956;2023-12-04T14:43:43;10.10;;;8.53;;
16468;SDS011;8345;50.902;6.956;2023-12-04T14:46:10;11.77;;;9.03;;
16468;SDS011;8345;50.902;6.956;2023-12-04T14:48:38;10.53;;;8.60;;